Time,TemperatureF,DewpointF,PressureIn,WindDirection,WindDirectionDegrees,WindSpeedMPH,WindSpeedGustMPH,Humidity,HourlyPrecipIn,Conditions,Clouds,dailyrainin,SoftwareType,DateUTC
2013-02-19 06:00:00,32.0,22.0,-100.00,SSW,197,1.0,-999.0,65,-99.99,,,-99.99,,2013-02-19 11:00:00,
2013-02-19 06:22:00,32.0,22.0,-100.00,SSW,197,1.0,-999.0,65,-99.99,,,-99.99,,2013-02-19 11:22:00,
2013-02-19 06:32:00,32.0,22.0,-100.00,SSW,197,1.0,-999.0,65,-99.99,,,-99.99,,2013-02-19 11:32:00,
2013-02-19 06:42:00,32.0,22.0,-100.00,SSW,197,1.0,-999.0,65,-99.99,,,-99.99,,2013-02-19 11:42:00,
2013-02-19 06:52:00,32.0,22.0,-100.00,SSW,197,1.0,-999.0,65,-99.99,,,-99.99,,2013-02-19 11:52:00,
2013-02-19 07:00:00,34.0,24.0,-100.00,SSW,209,3.0,7.0,67,-99.99,,,-99.99,,2013-02-19 12:00:00,
2013-02-19 07:22:00,34.0,24.0,-100.00,SSW,209,3.0,7.0,67,-99.99,,,-99.99,,2013-02-19 12:22:00,
2013-02-19 07:32:00,34.0,24.0,-100.00,SSW,209,3.0,7.0,67,-99.99,,,-99.99,,2013-02-19 12:32:00,
2013-02-19 07:42:00,34.0,24.0,-100.00,SSW,209,3.0,7.0,67,-99.99,,,-99.99,,2013-02-19 12:42:00,
2013-02-19 07:53:00,34.0,24.0,-100.00,SSW,209,3.0,7.0,67,-99.99,,,-99.99,,2013-02-19 12:53:00,
2013-02-19 08:00:00,38.0,25.0,-100.00,SW,219,5.0,12.0,59,-99.99,,,-99.99,,2013-02-19 13:00:00,
2013-02-19 08:22:00,38.0,25.0,-100.00,SW,219,5.0,12.0,59,-99.99,,,-99.99,,2013-02-19 13:22:00,
2013-02-19 08:32:00,38.0,25.0,-100.00,SW,219,5.0,12.0,59,-99.99,,,-99.99,,2013-02-19 13:32:00,
2013-02-19 08:42:00,38.0,25.0,-100.00,SW,219,5.0,12.0,59,-99.99,,,-99.99,,2013-02-19 13:42:00,
2013-02-19 08:52:00,38.0,25.0,-100.00,SW,219,5.0,12.0,59,-99.99,,,-99.99,,2013-02-19 13:52:00,
2013-02-19 09:00:00,42.0,24.0,-100.00,SSW,198,7.0,14.0,50,-99.99,,,-99.99,,2013-02-19 14:00:00,
2013-02-19 09:22:00,42.0,24.0,-100.00,SSW,198,7.0,14.0,50,-99.99,,,-99.99,,2013-02-19 14:22:00,
2013-02-19 09:33:00,42.0,24.0,-100.00,SSW,198,7.0,14.0,50,-99.99,,,-99.99,,2013-02-19 14:33:00,
2013-02-19 09:42:00,42.0,24.0,-100.00,SSW,198,7.0,14.0,50,-99.99,,,-99.99,,2013-02-19 14:42:00,
2013-02-19 09:52:00,42.0,24.0,-100.00,SSW,198,7.0,14.0,50,-99.99,,,-99.99,,2013-02-19 14:52:00,
2013-02-19 10:00:00,47.0,29.0,-100.00,South,184,12.0,20.0,50,-99.99,,,-99.99,,2013-02-19 15:00:00,
2013-02-19 10:22:00,47.0,29.0,-100.00,South,184,12.0,20.0,50,-99.99,,,-99.99,,2013-02-19 15:22:00,
2013-02-19 10:32:00,47.0,29.0,-100.00,South,184,12.0,20.0,50,-99.99,,,-99.99,,2013-02-19 15:32:00,
2013-02-19 10:42:00,47.0,29.0,-100.00,South,184,12.0,20.0,50,-99.99,,,-99.99,,2013-02-19 15:42:00,
2013-02-19 10:52:00,47.0,29.0,-100.00,South,184,12.0,20.0,50,-99.99,,,-99.99,,2013-02-19 15:52:00,
2013-02-19 11:00:00,48.0,32.0,-100.00,SW,217,13.0,30.0,53,-99.99,,,-99.99,,2013-02-19 16:00:00,
2013-02-19 11:22:00,48.0,32.0,-100.00,SW,217,13.0,30.0,53,-99.99,,,-99.99,,2013-02-19 16:22:00,
2013-02-19 11:32:00,48.0,32.0,-100.00,SW,217,13.0,30.0,53,-99.99,,,-99.99,,2013-02-19 16:32:00,
2013-02-19 11:42:00,48.0,32.0,-100.00,SW,217,13.0,30.0,53,-99.99,,,-99.99,,2013-02-19 16:42:00,
2013-02-19 11:52:00,48.0,32.0,-100.00,SW,217,13.0,30.0,53,-99.99,,,-99.99,,2013-02-19 16:52:00,
2013-02-19 12:00:00,48.0,34.0,-100.00,SW,236,7.0,25.0,59,-99.99,,,-99.99,,2013-02-19 17:00:00,
2013-02-19 12:21:00,48.0,34.0,-100.00,SW,236,7.0,25.0,59,-99.99,,,-99.99,,2013-02-19 17:21:00,
2013-02-19 12:32:00,48.0,34.0,-100.00,SW,236,7.0,25.0,59,-99.99,,,-99.99,,2013-02-19 17:32:00,
2013-02-19 12:42:00,48.0,34.0,-100.00,SW,236,7.0,25.0,59,-99.99,,,-99.99,,2013-02-19 17:42:00,
2013-02-19 12:52:00,48.0,34.0,-100.00,SW,236,7.0,25.0,59,-99.99,,,-99.99,,2013-02-19 17:52:00,
2013-02-19 13:00:00,44.0,40.0,-100.00,SW,215,4.0,17.0,86,-99.99,,,-99.99,,2013-02-19 18:00:00,
2013-02-19 13:21:00,44.0,40.0,-100.00,SW,215,4.0,17.0,86,-99.99,,,-99.99,,2013-02-19 18:21:00,
2013-02-19 13:32:00,44.0,40.0,-100.00,SW,215,4.0,17.0,86,-99.99,,,-99.99,,2013-02-19 18:32:00,
2013-02-19 13:42:00,44.0,40.0,-100.00,SW,215,4.0,17.0,86,-99.99,,,-99.99,,2013-02-19 18:42:00,
2013-02-19 13:52:00,44.0,40.0,-100.00,SW,215,4.0,17.0,86,-99.99,,,-99.99,,2013-02-19 18:52:00,
2013-02-19 14:00:00,45.0,42.0,-100.00,SW,227,7.0,12.0,92,-99.99,,,-99.99,,2013-02-19 19:00:00,
2013-02-19 14:22:00,45.0,42.0,-100.00,SW,227,7.0,12.0,92,-99.99,,,-99.99,,2013-02-19 19:22:00,
2013-02-19 14:32:00,45.0,42.0,-100.00,SW,227,7.0,12.0,92,-99.99,,,-99.99,,2013-02-19 19:32:00,
2013-02-19 14:42:00,45.0,42.0,-100.00,SW,227,7.0,12.0,92,-99.99,,,-99.99,,2013-02-19 19:42:00,
2013-02-19 14:52:00,45.0,42.0,-100.00,SW,227,7.0,12.0,92,-99.99,,,-99.99,,2013-02-19 19:52:00,
2013-02-19 15:00:00,44.0,43.0,-100.00,SSE,164,8.0,12.0,94,-99.99,,,-99.99,,2013-02-19 20:00:00,
2013-02-19 15:22:00,44.0,43.0,-100.00,SSE,164,8.0,12.0,94,-99.99,,,-99.99,,2013-02-19 20:22:00,
2013-02-19 15:32:00,44.0,43.0,-100.00,SSE,164,8.0,12.0,94,-99.99,,,-99.99,,2013-02-19 20:32:00,
2013-02-19 15:42:00,44.0,43.0,-100.00,SSE,164,8.0,12.0,94,-99.99,,,-99.99,,2013-02-19 20:42:00,
2013-02-19 15:52:00,44.0,43.0,-100.00,SSE,164,8.0,12.0,94,-99.99,,,-99.99,,2013-02-19 20:52:00,
2013-02-19 16:00:00,45.0,44.0,-100.00,SSW,212,8.0,14.0,95,-99.99,,,-99.99,,2013-02-19 21:00:00,
2013-02-19 16:21:00,45.0,44.0,-100.00,SSW,212,8.0,14.0,95,-99.99,,,-99.99,,2013-02-19 21:21:00,
2013-02-19 16:32:00,45.0,44.0,-100.00,SSW,212,8.0,14.0,95,-99.99,,,-99.99,,2013-02-19 21:32:00,
2013-02-19 16:42:00,45.0,44.0,-100.00,SSW,212,8.0,14.0,95,-99.99,,,-99.99,,2013-02-19 21:42:00,
2013-02-19 16:52:00,45.0,44.0,-100.00,SSW,212,8.0,14.0,95,-99.99,,,-99.99,,2013-02-19 21:52:00,
2013-02-19 17:00:00,46.0,45.0,-100.00,SSW,209,8.0,13.0,96,-99.99,,,-99.99,,2013-02-19 22:00:00,
2013-02-19 17:22:00,46.0,45.0,-100.00,SSW,209,8.0,13.0,96,-99.99,,,-99.99,,2013-02-19 22:22:00,
2013-02-19 17:32:00,46.0,45.0,-100.00,SSW,209,8.0,13.0,96,-99.99,,,-99.99,,2013-02-19 22:32:00,
2013-02-19 17:42:00,46.0,45.0,-100.00,SSW,209,8.0,13.0,96,-99.99,,,-99.99,,2013-02-19 22:42:00,
2013-02-19 17:52:00,46.0,45.0,-100.00,SSW,209,8.0,13.0,96,-99.99,,,-99.99,,2013-02-19 22:52:00,
2013-02-19 18:00:00,47.0,46.0,-100.00,SSW,212,6.0,20.0,95,-99.99,,,-99.99,,2013-02-19 23:00:00,
2013-02-19 18:32:00,47.0,46.0,-100.00,SSW,212,6.0,20.0,95,-99.99,,,-99.99,,2013-02-19 23:32:00,
2013-02-19 18:42:00,47.0,46.0,-100.00,SSW,212,6.0,20.0,95,-99.99,,,-99.99,,2013-02-19 23:42:00,
2013-02-19 18:52:00,47.0,46.0,-100.00,SSW,212,6.0,20.0,95,-99.99,,,-99.99,,2013-02-19 23:52:00,
2013-02-19 19:00:00,48.0,45.0,-100.00,West,266,8.0,15.0,92,-99.99,,,-99.99,,2013-02-20 00:00:00,
2013-02-19 19:22:00,48.0,45.0,-100.00,West,266,8.0,15.0,92,-99.99,,,-99.99,,2013-02-20 00:22:00,
2013-02-19 19:32:00,48.0,45.0,-100.00,West,266,8.0,15.0,92,-99.99,,,-99.99,,2013-02-20 00:32:00,
2013-02-19 19:42:00,48.0,45.0,-100.00,West,266,8.0,15.0,92,-99.99,,,-99.99,,2013-02-20 00:42:00,
2013-02-19 19:52:00,48.0,45.0,-100.00,West,266,8.0,15.0,92,-99.99,,,-99.99,,2013-02-20 00:52:00,
2013-02-19 20:00:00,46.0,42.0,-100.00,SW,216,11.0,26.0,85,-99.99,,,-99.99,,2013-02-20 01:00:00,
2013-02-19 20:22:00,46.0,42.0,-100.00,SW,216,11.0,26.0,85,-99.99,,,-99.99,,2013-02-20 01:22:00,
2013-02-19 20:32:00,46.0,42.0,-100.00,SW,216,11.0,26.0,85,-99.99,,,-99.99,,2013-02-20 01:32:00,
2013-02-19 20:42:00,46.0,42.0,-100.00,SW,216,11.0,26.0,85,-99.99,,,-99.99,,2013-02-20 01:42:00,
2013-02-19 20:52:00,46.0,42.0,-100.00,SW,216,11.0,26.0,85,-99.99,,,-99.99,,2013-02-20 01:52:00,
2013-02-19 21:00:00,44.0,40.0,-100.00,NW,314,8.0,19.0,86,-99.99,,,-99.99,,2013-02-20 02:00:00,
2013-02-19 21:22:00,44.0,40.0,-100.00,NW,314,8.0,19.0,86,-99.99,,,-99.99,,2013-02-20 02:22:00,
2013-02-19 21:32:00,44.0,40.0,-100.00,NW,314,8.0,19.0,86,-99.99,,,-99.99,,2013-02-20 02:32:00,
2013-02-19 21:42:00,44.0,40.0,-100.00,NW,314,8.0,19.0,86,-99.99,,,-99.99,,2013-02-20 02:42:00,
2013-02-19 21:52:00,44.0,40.0,-100.00,NW,314,8.0,19.0,86,-99.99,,,-99.99,,2013-02-20 02:52:00,
2013-02-19 22:00:00,43.0,38.0,-100.00,NW,306,6.0,17.0,83,-99.99,,,-99.99,,2013-02-20 03:00:00,
2013-02-19 22:22:00,43.0,38.0,-100.00,NW,306,6.0,17.0,83,-99.99,,,-99.99,,2013-02-20 03:22:00,
2013-02-19 22:32:00,43.0,38.0,-100.00,NW,306,6.0,17.0,83,-99.99,,,-99.99,,2013-02-20 03:32:00,
2013-02-19 22:42:00,43.0,38.0,-100.00,NW,306,6.0,17.0,83,-99.99,,,-99.99,,2013-02-20 03:42:00,
2013-02-19 22:52:00,43.0,38.0,-100.00,NW,306,6.0,17.0,83,-99.99,,,-99.99,,2013-02-20 03:52:00,
2013-02-19 23:00:00,41.0,29.0,-100.00,NW,308,9.0,19.0,62,-99.99,,,-99.99,,2013-02-20 04:00:00,
2013-02-19 23:22:00,41.0,29.0,-100.00,NW,308,9.0,19.0,62,-99.99,,,-99.99,,2013-02-20 04:22:00,
2013-02-19 23:32:00,41.0,29.0,-100.00,NW,308,9.0,19.0,62,-99.99,,,-99.99,,2013-02-20 04:32:00,
2013-02-19 23:42:00,41.0,29.0,-100.00,NW,308,9.0,19.0,62,-99.99,,,-99.99,,2013-02-20 04:42:00,
2013-02-19 23:52:00,41.0,29.0,-100.00,NW,308,9.0,19.0,62,-99.99,,,-99.99,,2013-02-20 04:52:00,